sensor_id;sensor_type;location;lat;lon;timestamp;temperature;humidity
17092;DHT22;8661;45.700;4.880;2024-02-28T00:00:11;9.50;99.90
17092;DHT22;8661;45.700;4.880;2024-02-28T00:02:40;9.50;99.90
17092;DHT22;8661;45.700;4.880;2024-02-28T00:05:07;9.40;99.90
17092;DHT22;8661;45.700;4.880;2024-02-28T00:07:34;9.40;99.90
17092;DHT22;8661;45.700;4.880;2024-02-28T00:10:01;9.40;99.90
17092;DHT22;8661;45.700;4.880;2024-02-28T00:12:28;9.40;99.90
17092;DHT22;8661;45.700;4.880;2024-02-28T00:14:55;9.40;99.90
17092;DHT22;8661;45.700;4.880;2024-02-28T00:17:22;9.40;99.90
17092;DHT22;8661;45.700;4.880;2024-02-28T00:19:50;9.30;99.90
17092;DHT22;8661;45.700;4.880;2024-02-28T00:22:17;9.30;99.90
17092;DHT22;8661;45.700;4.880;2024-02-28T00:24:44;9.30;99.90
17092;DHT22;8661;45.700;4.880;2024-02-28T00:27:11;9.30;99.90
17092;DHT22;8661;45.700;4.880;2024-02-28T00:29:38;9.30;99.90
17092;DHT22;8661;45.700;4.880;2024-02-28T00:32:06;9.30;99.90
17092;DHT22;8661;45.700;4.880;2024-02-28T00:34:33;9.30;99.90
17092;DHT22;8661;45.700;4.880;2024-02-28T00:37:01;9.30;99.90
17092;DHT22;8661;45.700;4.880;2024-02-28T00:39:28;9.30;99.90
17092;DHT22;8661;45.700;4.880;2024-02-28T00:41:55;9.30;99.90
17092;DHT22;8661;45.700;4.880;2024-02-28T00:44:22;9.20;99.90
17092;DHT22;8661;45.700;4.880;2024-02-28T00:46:49;9.30;99.90
17092;DHT22;8661;45.700;4.880;2024-02-28T00:49:16;9.20;99.90
17092;DHT22;8661;45.700;4.880;2024-02-28T00:51:43;9.20;99.90
17092;DHT22;8661;45.700;4.880;2024-02-28T00:54:11;9.20;99.90
17092;DHT22;8661;45.700;4.880;2024-02-28T00:56:38;9.20;99.90
17092;DHT22;8661;45.700;4.880;2024-02-28T00:59:05;9.20;99.90
17092;DHT22;8661;45.700;4.880;2024-02-28T01:01:35;9.20;99.90
17092;DHT22;8661;45.700;4.880;2024-02-28T01:04:02;9.20;99.90
17092;DHT22;8661;45.700;4.880;2024-02-28T01:06:29;9.10;99.90
17092;DHT22;8661;45.700;4.880;2024-02-28T01:08:56;9.10;99.90
17092;DHT22;8661;45.700;4.880;2024-02-28T01:11:24;9.10;99.90
17092;DHT22;8661;45.700;4.880;2024-02-28T01:13:51;9.10;99.90
17092;DHT22;8661;45.700;4.880;2024-02-28T01:16:18;9.10;99.90
17092;DHT22;8661;45.700;4.880;2024-02-28T01:18:46;9.10;99.90
17092;DHT22;8661;45.700;4.880;2024-02-28T01:21:13;9.10;99.90
17092;DHT22;8661;45.700;4.880;2024-02-28T01:23:40;9.10;99.90
17092;DHT22;8661;45.700;4.880;2024-02-28T01:26:07;9.00;99.90
17092;DHT22;8661;45.700;4.880;2024-02-28T01:28:35;9.00;99.90
17092;DHT22;8661;45.700;4.880;2024-02-28T01:31:02;9.00;99.90
17092;DHT22;8661;45.700;4.880;2024-02-28T01:33:29;9.00;99.90
17092;DHT22;8661;45.700;4.880;2024-02-28T01:35:56;9.00;99.90
17092;DHT22;8661;45.700;4.880;2024-02-28T01:38:24;9.00;99.90
17092;DHT22;8661;45.700;4.880;2024-02-28T01:40:52;9.00;99.90
17092;DHT22;8661;45.700;4.880;2024-02-28T01:43:19;9.00;99.90
17092;DHT22;8661;45.700;4.880;2024-02-28T01:45:48;9.00;99.90
17092;DHT22;8661;45.700;4.880;2024-02-28T01:48:15;8.90;99.90
17092;DHT22;8661;45.700;4.880;2024-02-28T01:50:42;8.90;99.90
17092;DHT22;8661;45.700;4.880;2024-02-28T01:53:10;8.90;99.90
17092;DHT22;8661;45.700;4.880;2024-02-28T01:55:39;8.90;99.90
17092;DHT22;8661;45.700;4.880;2024-02-28T01:58:06;8.80;99.90
17092;DHT22;8661;45.700;4.880;2024-02-28T02:00:34;8.80;99.90
17092;DHT22;8661;45.700;4.880;2024-02-28T02:03:03;8.80;99.90
17092;DHT22;8661;45.700;4.880;2024-02-28T02:05:30;8.80;99.90
17092;DHT22;8661;45.700;4.880;2024-02-28T02:07:57;8.80;99.90
17092;DHT22;8661;45.700;4.880;2024-02-28T02:10:25;8.80;99.90
17092;DHT22;8661;45.700;4.880;2024-02-28T02:12:52;8.80;99.90
17092;DHT22;8661;45.700;4.880;2024-02-28T02:15:19;8.80;99.90
17092;DHT22;8661;45.700;4.880;2024-02-28T02:17:46;8.70;99.90
17092;DHT22;8661;45.700;4.880;2024-02-28T02:20:15;8.70;99.90
17092;DHT22;8661;45.700;4.880;2024-02-28T02:22:45;8.80;99.90
17092;DHT22;8661;45.700;4.880;2024-02-28T02:25:12;8.80;99.90
17092;DHT22;8661;45.700;4.880;2024-02-28T02:27:38;8.80;99.90
17092;DHT22;8661;45.700;4.880;2024-02-28T02:30:06;8.70;99.90
17092;DHT22;8661;45.700;4.880;2024-02-28T02:32:33;8.70;99.90
17092;DHT22;8661;45.700;4.880;2024-02-28T02:35:00;8.70;99.90
17092;DHT22;8661;45.700;4.880;2024-02-28T02:37:27;8.70;99.90
17092;DHT22;8661;45.700;4.880;2024-02-28T02:39:56;8.70;99.90
17092;DHT22;8661;45.700;4.880;2024-02-28T02:42:22;8.70;99.90
17092;DHT22;8661;45.700;4.880;2024-02-28T02:44:49;8.70;99.90
17092;DHT22;8661;45.700;4.880;2024-02-28T02:47:16;8.70;99.90
17092;DHT22;8661;45.700;4.880;2024-02-28T02:49:43;8.70;99.90
17092;DHT22;8661;45.700;4.880;2024-02-28T02:52:10;8.70;99.90
17092;DHT22;8661;45.700;4.880;2024-02-28T02:54:37;8.70;99.90
17092;DHT22;8661;45.700;4.880;2024-02-28T02:57:06;8.70;99.90
17092;DHT22;8661;45.700;4.880;2024-02-28T02:59:33;8.70;99.90
17092;DHT22;8661;45.700;4.880;2024-02-28T03:02:00;8.70;99.90
17092;DHT22;8661;45.700;4.880;2024-02-28T03:04:27;8.70;99.90
17092;DHT22;8661;45.700;4.880;2024-02-28T03:06:54;8.70;99.90
17092;DHT22;8661;45.700;4.880;2024-02-28T03:09:20;8.60;99.90
17092;DHT22;8661;45.700;4.880;2024-02-28T03:11:47;8.60;99.90
17092;DHT22;8661;45.700;4.880;2024-02-28T03:14:16;8.70;99.90
17092;DHT22;8661;45.700;4.880;2024-02-28T03:16:44;8.60;99.90
17092;DHT22;8661;45.700;4.880;2024-02-28T03:19:13;8.60;99.90
17092;DHT22;8661;45.700;4.880;2024-02-28T03:21:40;8.60;99.90
17092;DHT22;8661;45.700;4.880;2024-02-28T03:24:07;8.60;99.90
17092;DHT22;8661;45.700;4.880;2024-02-28T03:26:35;8.50;99.90
17092;DHT22;8661;45.700;4.880;2024-02-28T03:29:02;8.50;99.90
17092;DHT22;8661;45.700;4.880;2024-02-28T03:31:30;8.50;99.90
17092;DHT22;8661;45.700;4.880;2024-02-28T03:33:57;8.50;99.90
17092;DHT22;8661;45.700;4.880;2024-02-28T03:36:24;8.50;99.90
17092;DHT22;8661;45.700;4.880;2024-02-28T03:38:51;8.40;99.90
17092;DHT22;8661;45.700;4.880;2024-02-28T03:41:18;8.50;99.90
17092;DHT22;8661;45.700;4.880;2024-02-28T03:43:44;8.40;99.90
17092;DHT22;8661;45.700;4.880;2024-02-28T03:46:11;8.40;99.90
17092;DHT22;8661;45.700;4.880;2024-02-28T03:48:40;8.40;99.90
17092;DHT22;8661;45.700;4.880;2024-02-28T03:51:07;8.40;99.90
17092;DHT22;8661;45.700;4.880;2024-02-28T03:53:34;8.40;99.90
17092;DHT22;8661;45.700;4.880;2024-02-28T03:56:00;8.40;99.90
17092;DHT22;8661;45.700;4.880;2024-02-28T03:58:29;8.40;99.90
17092;DHT22;8661;45.700;4.880;2024-02-28T04:00:55;8.40;99.90
17092;DHT22;8661;45.700;4.880;2024-02-28T04:03:22;8.40;99.90
17092;DHT22;8661;45.700;4.880;2024-02-28T04:05:51;8.40;99.90
17092;DHT22;8661;45.700;4.880;2024-02-28T04:08:18;8.40;99.90
17092;DHT22;8661;45.700;4.880;2024-02-28T04:10:45;8.40;99.90
17092;DHT22;8661;45.700;4.880;2024-02-28T04:13:12;8.40;99.90
17092;DHT22;8661;45.700;4.880;2024-02-28T04:15:38;8.40;99.90
17092;DHT22;8661;45.700;4.880;2024-02-28T04:18:05;8.40;99.90
17092;DHT22;8661;45.700;4.880;2024-02-28T04:20:32;8.40;99.90
17092;DHT22;8661;45.700;4.880;2024-02-28T04:23:01;8.40;99.90
17092;DHT22;8661;45.700;4.880;2024-02-28T04:25:27;8.40;99.90
17092;DHT22;8661;45.700;4.880;2024-02-28T04:27:54;8.40;99.90
17092;DHT22;8661;45.700;4.880;2024-02-28T04:30:22;8.40;99.90
17092;DHT22;8661;45.700;4.880;2024-02-28T04:32:49;8.40;99.90
17092;DHT22;8661;45.700;4.880;2024-02-28T04:35:16;8.40;99.90
17092;DHT22;8661;45.700;4.880;2024-02-28T04:37:44;8.40;99.90
17092;DHT22;8661;45.700;4.880;2024-02-28T04:40:13;8.40;99.90
17092;DHT22;8661;45.700;4.880;2024-02-28T04:42:41;8.40;99.90
17092;DHT22;8661;45.700;4.880;2024-02-28T04:45:09;8.40;99.90
17092;DHT22;8661;45.700;4.880;2024-02-28T04:47:36;8.50;99.90
17092;DHT22;8661;45.700;4.880;2024-02-28T04:50:04;8.40;99.90
17092;DHT22;8661;45.700;4.880;2024-02-28T04:52:31;8.50;99.90
17092;DHT22;8661;45.700;4.880;2024-02-28T04:54:58;8.50;99.90
17092;DHT22;8661;45.700;4.880;2024-02-28T04:57:26;8.40;99.90
17092;DHT22;8661;45.700;4.880;2024-02-28T04:59:53;8.40;99.90
17092;DHT22;8661;45.700;4.880;2024-02-28T05:02:20;8.40;99.90
17092;DHT22;8661;45.700;4.880;2024-02-28T05:04:47;8.30;99.90
17092;DHT22;8661;45.700;4.880;2024-02-28T05:07:14;8.40;99.90
17092;DHT22;8661;45.700;4.880;2024-02-28T05:09:41;8.40;99.90
17092;DHT22;8661;45.700;4.880;2024-02-28T05:12:09;8.30;99.90
17092;DHT22;8661;45.700;4.880;2024-02-28T05:14:38;8.40;99.90
17092;DHT22;8661;45.700;4.880;2024-02-28T05:17:05;8.30;99.90
17092;DHT22;8661;45.700;4.880;2024-02-28T05:19:32;8.30;99.90
17092;DHT22;8661;45.700;4.880;2024-02-28T05:21:59;8.30;99.90
17092;DHT22;8661;45.700;4.880;2024-02-28T05:24:27;8.30;99.90
17092;DHT22;8661;45.700;4.880;2024-02-28T05:26:54;8.30;99.90
17092;DHT22;8661;45.700;4.880;2024-02-28T05:29:21;8.30;99.90
17092;DHT22;8661;45.700;4.880;2024-02-28T05:31:51;8.30;99.90
17092;DHT22;8661;45.700;4.880;2024-02-28T05:34:18;8.30;99.90
17092;DHT22;8661;45.700;4.880;2024-02-28T05:36:45;8.30;99.90
17092;DHT22;8661;45.700;4.880;2024-02-28T05:39:12;8.30;99.90
17092;DHT22;8661;45.700;4.880;2024-02-28T05:41:44;8.30;99.90
17092;DHT22;8661;45.700;4.880;2024-02-28T05:44:14;8.30;99.90
17092;DHT22;8661;45.700;4.880;2024-02-28T05:46:41;8.30;99.90
17092;DHT22;8661;45.700;4.880;2024-02-28T05:49:10;8.30;99.90
17092;DHT22;8661;45.700;4.880;2024-02-28T05:51:37;8.30;99.90
17092;DHT22;8661;45.700;4.880;2024-02-28T05:54:04;8.20;99.90
17092;DHT22;8661;45.700;4.880;2024-02-28T05:56:31;8.20;99.90
17092;DHT22;8661;45.700;4.880;2024-02-28T05:58:57;8.20;99.90
17092;DHT22;8661;45.700;4.880;2024-02-28T06:01:24;8.20;99.90
17092;DHT22;8661;45.700;4.880;2024-02-28T06:03:51;8.20;99.90
17092;DHT22;8661;45.700;4.880;2024-02-28T06:06:20;8.20;99.90
17092;DHT22;8661;45.700;4.880;2024-02-28T06:08:47;8.20;99.90
17092;DHT22;8661;45.700;4.880;2024-02-28T06:11:14;8.20;99.90
17092;DHT22;8661;45.700;4.880;2024-02-28T06:13:41;8.20;99.90
17092;DHT22;8661;45.700;4.880;2024-02-28T06:16:13;8.20;99.90
17092;DHT22;8661;45.700;4.880;2024-02-28T06:18:40;8.20;99.90
17092;DHT22;8661;45.700;4.880;2024-02-28T06:21:07;8.20;99.90
17092;DHT22;8661;45.700;4.880;2024-02-28T06:23:35;8.20;99.90
17092;DHT22;8661;45.700;4.880;2024-02-28T06:26:02;8.20;99.90
17092;DHT22;8661;45.700;4.880;2024-02-28T06:28:29;8.20;99.90
17092;DHT22;8661;45.700;4.880;2024-02-28T06:30:57;8.10;99.90
17092;DHT22;8661;45.700;4.880;2024-02-28T06:33:24;8.10;99.90
17092;DHT22;8661;45.700;4.880;2024-02-28T06:35:52;8.10;99.90
17092;DHT22;8661;45.700;4.880;2024-02-28T06:38:19;8.10;99.90
17092;DHT22;8661;45.700;4.880;2024-02-28T06:40:48;8.10;99.90
17092;DHT22;8661;45.700;4.880;2024-02-28T06:43:14;8.10;99.90
17092;DHT22;8661;45.700;4.880;2024-02-28T06:45:42;8.10;99.90
17092;DHT22;8661;45.700;4.880;2024-02-28T06:48:08;8.10;99.90
17092;DHT22;8661;45.700;4.880;2024-02-28T06:50:35;8.10;99.90
17092;DHT22;8661;45.700;4.880;2024-02-28T06:53:02;8.10;99.90
17092;DHT22;8661;45.700;4.880;2024-02-28T06:55:29;8.10;99.90
17092;DHT22;8661;45.700;4.880;2024-02-28T06:57:58;8.10;99.90
17092;DHT22;8661;45.700;4.880;2024-02-28T07:00:25;8.10;99.90
17092;DHT22;8661;45.700;4.880;2024-02-28T07:02:52;8.10;99.90
17092;DHT22;8661;45.700;4.880;2024-02-28T07:05:19;8.10;99.90
17092;DHT22;8661;45.700;4.880;2024-02-28T07:07:46;8.10;99.90
17092;DHT22;8661;45.700;4.880;2024-02-28T07:10:13;8.10;99.90
17092;DHT22;8661;45.700;4.880;2024-02-28T07:12:40;8.10;99.90
17092;DHT22;8661;45.700;4.880;2024-02-28T07:15:08;8.10;99.90
17092;DHT22;8661;45.700;4.880;2024-02-28T07:17:35;8.10;99.90
17092;DHT22;8661;45.700;4.880;2024-02-28T07:20:02;8.10;99.90
17092;DHT22;8661;45.700;4.880;2024-02-28T07:22:30;8.10;99.90
17092;DHT22;8661;45.700;4.880;2024-02-28T07:24:57;8.10;99.90
17092;DHT22;8661;45.700;4.880;2024-02-28T07:27:24;8.10;99.90
17092;DHT22;8661;45.700;4.880;2024-02-28T07:29:51;8.10;99.90
17092;DHT22;8661;45.700;4.880;2024-02-28T07:32:19;8.20;99.90
17092;DHT22;8661;45.700;4.880;2024-02-28T07:34:46;8.20;99.90
17092;DHT22;8661;45.700;4.880;2024-02-28T07:37:13;8.20;99.90
17092;DHT22;8661;45.700;4.880;2024-02-28T07:39:40;8.20;99.90
17092;DHT22;8661;45.700;4.880;2024-02-28T07:42:06;8.30;99.90
17092;DHT22;8661;45.700;4.880;2024-02-28T07:44:33;8.30;99.90
17092;DHT22;8661;45.700;4.880;2024-02-28T07:47:00;8.40;99.90
17092;DHT22;8661;45.700;4.880;2024-02-28T07:49:29;8.40;99.90
17092;DHT22;8661;45.700;4.880;2024-02-28T07:51:55;8.50;99.90
17092;DHT22;8661;45.700;4.880;2024-02-28T07:54:22;8.50;99.90
17092;DHT22;8661;45.700;4.880;2024-02-28T07:56:50;8.60;99.90
17092;DHT22;8661;45.700;4.880;2024-02-28T07:59:18;8.70;99.90
17092;DHT22;8661;45.700;4.880;2024-02-28T08:01:45;8.80;99.90
17092;DHT22;8661;45.700;4.880;2024-02-28T08:04:12;8.90;99.90
17092;DHT22;8661;45.700;4.880;2024-02-28T08:06:41;8.90;99.90
17092;DHT22;8661;45.700;4.880;2024-02-28T08:09:08;9.00;99.90
17092;DHT22;8661;45.700;4.880;2024-02-28T08:11:35;8.90;99.90
17092;DHT22;8661;45.700;4.880;2024-02-28T08:14:02;9.00;99.90
17092;DHT22;8661;45.700;4.880;2024-02-28T08:16:29;9.00;99.90
17092;DHT22;8661;45.700;4.880;2024-02-28T08:18:56;9.00;99.90
17092;DHT22;8661;45.700;4.880;2024-02-28T08:21:24;9.00;99.90
17092;DHT22;8661;45.700;4.880;2024-02-28T08:23:54;9.10;99.90
17092;DHT22;8661;45.700;4.880;2024-02-28T08:26:23;9.10;99.90
17092;DHT22;8661;45.700;4.880;2024-02-28T08:28:50;9.20;99.90
17092;DHT22;8661;45.700;4.880;2024-02-28T08:31:17;9.20;99.90
17092;DHT22;8661;45.700;4.880;2024-02-28T08:33:46;9.20;99.90
17092;DHT22;8661;45.700;4.880;2024-02-28T08:36:14;9.20;99.90
17092;DHT22;8661;45.700;4.880;2024-02-28T08:38:41;9.20;99.90
17092;DHT22;8661;45.700;4.880;2024-02-28T08:41:09;9.30;99.90
17092;DHT22;8661;45.700;4.880;2024-02-28T08:43:38;9.30;99.90
17092;DHT22;8661;45.700;4.880;2024-02-28T08:46:05;9.30;99.90
17092;DHT22;8661;45.700;4.880;2024-02-28T08:48:32;9.40;99.90
17092;DHT22;8661;45.700;4.880;2024-02-28T08:50:59;9.30;99.90
17092;DHT22;8661;45.700;4.880;2024-02-28T08:53:27;9.30;99.90
17092;DHT22;8661;45.700;4.880;2024-02-28T08:55:54;9.20;99.90
17092;DHT22;8661;45.700;4.880;2024-02-28T08:58:22;9.20;99.90
17092;DHT22;8661;45.700;4.880;2024-02-28T09:00:49;9.10;99.90
17092;DHT22;8661;45.700;4.880;2024-02-28T09:03:16;9.10;99.90
17092;DHT22;8661;45.700;4.880;2024-02-28T09:05:47;9.00;99.90
17092;DHT22;8661;45.700;4.880;2024-02-28T09:08:16;9.00;99.90
17092;DHT22;8661;45.700;4.880;2024-02-28T09:10:43;8.90;99.90
17092;DHT22;8661;45.700;4.880;2024-02-28T09:13:10;9.00;99.90
17092;DHT22;8661;45.700;4.880;2024-02-28T09:15:39;9.00;99.90
17092;DHT22;8661;45.700;4.880;2024-02-28T09:18:07;9.00;99.90
17092;DHT22;8661;45.700;4.880;2024-02-28T09:20:34;9.00;99.90
17092;DHT22;8661;45.700;4.880;2024-02-28T09:23:01;9.00;99.90
17092;DHT22;8661;45.700;4.880;2024-02-28T09:25:32;9.00;99.90
17092;DHT22;8661;45.700;4.880;2024-02-28T09:28:01;9.00;99.90
17092;DHT22;8661;45.700;4.880;2024-02-28T09:30:28;9.00;99.90
17092;DHT22;8661;45.700;4.880;2024-02-28T09:32:57;9.00;99.90
17092;DHT22;8661;45.700;4.880;2024-02-28T09:35:24;9.00;99.90
17092;DHT22;8661;45.700;4.880;2024-02-28T09:37:51;9.00;99.90
17092;DHT22;8661;45.700;4.880;2024-02-28T09:40:18;9.00;99.90
17092;DHT22;8661;45.700;4.880;2024-02-28T09:42:49;9.10;99.90
17092;DHT22;8661;45.700;4.880;2024-02-28T09:45:17;9.10;99.90
17092;DHT22;8661;45.700;4.880;2024-02-28T09:47:45;9.10;99.90
17092;DHT22;8661;45.700;4.880;2024-02-28T09:50:15;9.10;99.90
17092;DHT22;8661;45.700;4.880;2024-02-28T09:52:42;9.20;99.90
17092;DHT22;8661;45.700;4.880;2024-02-28T09:55:09;9.20;99.90
17092;DHT22;8661;45.700;4.880;2024-02-28T09:57:36;9.30;99.90
17092;DHT22;8661;45.700;4.880;2024-02-28T10:00:06;9.40;99.90
17092;DHT22;8661;45.700;4.880;2024-02-28T10:02:36;9.40;99.90
17092;DHT22;8661;45.700;4.880;2024-02-28T10:05:04;9.40;99.90
17092;DHT22;8661;45.700;4.880;2024-02-28T10:07:33;9.40;99.90
17092;DHT22;8661;45.700;4.880;2024-02-28T10:10:00;9.40;99.90
17092;DHT22;8661;45.700;4.880;2024-02-28T10:12:29;9.50;99.90
17092;DHT22;8661;45.700;4.880;2024-02-28T10:15:00;9.50;99.90
17092;DHT22;8661;45.700;4.880;2024-02-28T10:17:27;9.60;99.90
17092;DHT22;8661;45.700;4.880;2024-02-28T10:19:57;9.60;99.90
17092;DHT22;8661;45.700;4.880;2024-02-28T10:22:25;9.70;99.90
17092;DHT22;8661;45.700;4.880;2024-02-28T10:25:01;9.80;99.90
17092;DHT22;8661;45.700;4.880;2024-02-28T10:27:32;9.80;99.90
17092;DHT22;8661;45.700;4.880;2024-02-28T10:29:59;9.90;99.90
17092;DHT22;8661;45.700;4.880;2024-02-28T10:32:27;9.90;99.90
17092;DHT22;8661;45.700;4.880;2024-02-28T10:34:54;10.00;99.90
17092;DHT22;8661;45.700;4.880;2024-02-28T10:37:23;10.00;99.90
17092;DHT22;8661;45.700;4.880;2024-02-28T10:39:52;10.20;99.90
17092;DHT22;8661;45.700;4.880;2024-02-28T10:42:23;10.20;99.90
17092;DHT22;8661;45.700;4.880;2024-02-28T10:44:52;10.20;99.90
17092;DHT22;8661;45.700;4.880;2024-02-28T10:47:22;10.20;99.90
17092;DHT22;8661;45.700;4.880;2024-02-28T10:49:49;10.30;99.90
17092;DHT22;8661;45.700;4.880;2024-02-28T10:52:19;10.30;99.90
17092;DHT22;8661;45.700;4.880;2024-02-28T10:54:54;10.50;99.90
17092;DHT22;8661;45.700;4.880;2024-02-28T10:57:24;10.50;99.90
17092;DHT22;8661;45.700;4.880;2024-02-28T10:59:52;10.50;99.90
17092;DHT22;8661;45.700;4.880;2024-02-28T11:02:19;10.40;99.90
17092;DHT22;8661;45.700;4.880;2024-02-28T11:04:46;10.40;99.90
17092;DHT22;8661;45.700;4.880;2024-02-28T11:07:19;10.30;99.90
17092;DHT22;8661;45.700;4.880;2024-02-28T11:09:47;10.20;99.90
17092;DHT22;8661;45.700;4.880;2024-02-28T11:12:25;10.10;99.90
17092;DHT22;8661;45.700;4.880;2024-02-28T11:14:57;10.10;99.90
17092;DHT22;8661;45.700;4.880;2024-02-28T11:17:26;10.20;99.90
17092;DHT22;8661;45.700;4.880;2024-02-28T11:19:54;10.10;99.90
17092;DHT22;8661;45.700;4.880;2024-02-28T11:22:21;10.20;99.90
17092;DHT22;8661;45.700;4.880;2024-02-28T11:24:49;10.20;99.90
17092;DHT22;8661;45.700;4.880;2024-02-28T11:27:16;10.30;99.90
17092;DHT22;8661;45.700;4.880;2024-02-28T11:29:45;10.50;99.90
17092;DHT22;8661;45.700;4.880;2024-02-28T11:32:12;10.60;99.90
17092;DHT22;8661;45.700;4.880;2024-02-28T11:34:40;10.70;99.90
17092;DHT22;8661;45.700;4.880;2024-02-28T11:37:08;10.80;99.90
17092;DHT22;8661;45.700;4.880;2024-02-28T11:39:36;10.90;99.90
17092;DHT22;8661;45.700;4.880;2024-02-28T11:42:10;10.90;99.90
17092;DHT22;8661;45.700;4.880;2024-02-28T11:44:39;11.00;99.90
17092;DHT22;8661;45.700;4.880;2024-02-28T11:47:08;11.20;99.90
17092;DHT22;8661;45.700;4.880;2024-02-28T11:49:36;11.30;99.90
17092;DHT22;8661;45.700;4.880;2024-02-28T11:52:05;11.20;99.90
17092;DHT22;8661;45.700;4.880;2024-02-28T11:54:32;11.30;99.90
17092;DHT22;8661;45.700;4.880;2024-02-28T11:56:59;11.40;99.90
17092;DHT22;8661;45.700;4.880;2024-02-28T11:59:26;11.50;99.90
17092;DHT22;8661;45.700;4.880;2024-02-28T12:01:54;11.50;99.90
17092;DHT22;8661;45.700;4.880;2024-02-28T12:04:27;11.50;99.90
17092;DHT22;8661;45.700;4.880;2024-02-28T12:06:53;11.50;99.90
17092;DHT22;8661;45.700;4.880;2024-02-28T12:09:21;11.60;99.90
17092;DHT22;8661;45.700;4.880;2024-02-28T12:11:48;11.70;99.90
17092;DHT22;8661;45.700;4.880;2024-02-28T12:14:17;11.70;99.90
17092;DHT22;8661;45.700;4.880;2024-02-28T12:16:44;11.80;99.90
17092;DHT22;8661;45.700;4.880;2024-02-28T12:19:13;11.90;99.90
17092;DHT22;8661;45.700;4.880;2024-02-28T12:21:42;12.00;99.90
17092;DHT22;8661;45.700;4.880;2024-02-28T12:24:10;12.10;99.90
17092;DHT22;8661;45.700;4.880;2024-02-28T12:26:37;12.10;99.90
17092;DHT22;8661;45.700;4.880;2024-02-28T12:29:04;12.20;99.90
17092;DHT22;8661;45.700;4.880;2024-02-28T12:31:31;12.10;99.90
17092;DHT22;8661;45.700;4.880;2024-02-28T12:33:58;12.10;99.90
17092;DHT22;8661;45.700;4.880;2024-02-28T12:36:25;12.10;99.90
17092;DHT22;8661;45.700;4.880;2024-02-28T12:38:54;12.10;99.90
17092;DHT22;8661;45.700;4.880;2024-02-28T12:41:21;12.00;99.90
17092;DHT22;8661;45.700;4.880;2024-02-28T12:43:48;12.10;99.90
17092;DHT22;8661;45.700;4.880;2024-02-28T12:46:15;12.20;99.90
17092;DHT22;8661;45.700;4.880;2024-02-28T12:48:42;12.00;99.90
17092;DHT22;8661;45.700;4.880;2024-02-28T12:51:21;12.00;99.90
17092;DHT22;8661;45.700;4.880;2024-02-28T12:54:03;12.00;99.90
17092;DHT22;8661;45.700;4.880;2024-02-28T12:56:30;12.00;99.90
17092;DHT22;8661;45.700;4.880;2024-02-28T12:58:57;12.00;99.90
17092;DHT22;8661;45.700;4.880;2024-02-28T13:01:24;12.10;99.90
17092;DHT22;8661;45.700;4.880;2024-02-28T13:03:53;12.20;99.90
17092;DHT22;8661;45.700;4.880;2024-02-28T13:06:20;12.20;99.90
17092;DHT22;8661;45.700;4.880;2024-02-28T13:08:47;12.20;99.90
17092;DHT22;8661;45.700;4.880;2024-02-28T13:11:19;12.20;99.90
17092;DHT22;8661;45.700;4.880;2024-02-28T13:13:47;12.30;99.90
17092;DHT22;8661;45.700;4.880;2024-02-28T13:16:18;12.40;99.90
17092;DHT22;8661;45.700;4.880;2024-02-28T13:18:45;12.50;99.90
17092;DHT22;8661;45.700;4.880;2024-02-28T13:21:12;12.60;99.90
17092;DHT22;8661;45.700;4.880;2024-02-28T13:23:41;12.60;99.90
17092;DHT22;8661;45.700;4.880;2024-02-28T13:26:08;12.70;99.90
17092;DHT22;8661;45.700;4.880;2024-02-28T13:28:44;12.70;99.90
17092;DHT22;8661;45.700;4.880;2024-02-28T13:31:11;12.70;99.90
17092;DHT22;8661;45.700;4.880;2024-02-28T13:33:39;12.70;99.90
17092;DHT22;8661;45.700;4.880;2024-02-28T13:36:07;12.60;99.90
17092;DHT22;8661;45.700;4.880;2024-02-28T13:38:35;12.50;99.90
17092;DHT22;8661;45.700;4.880;2024-02-28T13:41:02;12.40;99.90
17092;DHT22;8661;45.700;4.880;2024-02-28T13:43:29;12.30;99.90
17092;DHT22;8661;45.700;4.880;2024-02-28T13:45:58;12.10;99.90
17092;DHT22;8661;45.700;4.880;2024-02-28T13:48:27;12.00;99.90
17092;DHT22;8661;45.700;4.880;2024-02-28T13:50:56;11.90;99.90
17092;DHT22;8661;45.700;4.880;2024-02-28T13:53:24;11.80;99.90
17092;DHT22;8661;45.700;4.880;2024-02-28T13:55:51;11.80;99.90
17092;DHT22;8661;45.700;4.880;2024-02-28T13:58:18;11.50;99.90
17092;DHT22;8661;45.700;4.880;2024-02-28T14:00:48;11.30;99.90
17092;DHT22;8661;45.700;4.880;2024-02-28T14:03:19;11.20;99.90
17092;DHT22;8661;45.700;4.880;2024-02-28T14:05:46;11.10;99.90
17092;DHT22;8661;45.700;4.880;2024-02-28T14:08:13;10.90;99.90
17092;DHT22;8661;45.700;4.880;2024-02-28T14:10:42;10.80;99.90
17092;DHT22;8661;45.700;4.880;2024-02-28T14:13:11;10.70;99.90
17092;DHT22;8661;45.700;4.880;2024-02-28T14:15:38;10.60;99.90
17092;DHT22;8661;45.700;4.880;2024-02-28T14:18:05;10.70;99.90
17092;DHT22;8661;45.700;4.880;2024-02-28T14:20:33;10.60;99.90
17092;DHT22;8661;45.700;4.880;2024-02-28T14:23:00;10.60;99.90
17092;DHT22;8661;45.700;4.880;2024-02-28T14:25:28;10.60;99.90
17092;DHT22;8661;45.700;4.880;2024-02-28T14:27:56;10.50;99.90
17092;DHT22;8661;45.700;4.880;2024-02-28T14:30:23;10.50;99.90
17092;DHT22;8661;45.700;4.880;2024-02-28T14:32:50;10.50;99.90
17092;DHT22;8661;45.700;4.880;2024-02-28T14:35:17;10.50;99.90
17092;DHT22;8661;45.700;4.880;2024-02-28T14:37:46;10.50;99.90
17092;DHT22;8661;45.700;4.880;2024-02-28T14:40:13;10.60;99.90
17092;DHT22;8661;45.700;4.880;2024-02-28T14:42:42;10.60;99.90
17092;DHT22;8661;45.700;4.880;2024-02-28T14:45:11;10.60;99.90
17092;DHT22;8661;45.700;4.880;2024-02-28T14:47:40;10.60;99.90
17092;DHT22;8661;45.700;4.880;2024-02-28T14:50:08;10.60;99.90
17092;DHT22;8661;45.700;4.880;2024-02-28T14:52:36;10.50;99.90
17092;DHT22;8661;45.700;4.880;2024-02-28T14:55:06;10.50;99.90
17092;DHT22;8661;45.700;4.880;2024-02-28T14:57:33;10.40;99.90
17092;DHT22;8661;45.700;4.880;2024-02-28T15:00:00;10.50;99.90
17092;DHT22;8661;45.700;4.880;2024-02-28T15:02:31;10.40;99.90
17092;DHT22;8661;45.700;4.880;2024-02-28T15:04:58;10.50;99.90
17092;DHT22;8661;45.700;4.880;2024-02-28T15:07:25;10.50;99.90
17092;DHT22;8661;45.700;4.880;2024-02-28T15:09:52;10.40;99.90
17092;DHT22;8661;45.700;4.880;2024-02-28T15:12:24;10.40;99.90
17092;DHT22;8661;45.700;4.880;2024-02-28T15:14:51;10.40;99.90
17092;DHT22;8661;45.700;4.880;2024-02-28T15:17:19;10.40;99.90
17092;DHT22;8661;45.700;4.880;2024-02-28T15:19:46;10.40;99.90
17092;DHT22;8661;45.700;4.880;2024-02-28T15:22:13;10.40;99.90
17092;DHT22;8661;45.700;4.880;2024-02-28T15:24:40;10.40;99.90
17092;DHT22;8661;45.700;4.880;2024-02-28T15:27:07;10.40;99.90
17092;DHT22;8661;45.700;4.880;2024-02-28T15:29:36;10.40;99.90
17092;DHT22;8661;45.700;4.880;2024-02-28T15:32:03;10.50;99.90
17092;DHT22;8661;45.700;4.880;2024-02-28T15:34:30;10.50;99.90
17092;DHT22;8661;45.700;4.880;2024-02-28T15:36:57;10.50;99.90
17092;DHT22;8661;45.700;4.880;2024-02-28T15:39:26;10.50;99.90
17092;DHT22;8661;45.700;4.880;2024-02-28T15:41:53;10.50;99.90
17092;DHT22;8661;45.700;4.880;2024-02-28T15:44:20;10.50;99.90
17092;DHT22;8661;45.700;4.880;2024-02-28T15:46:50;10.50;99.90
17092;DHT22;8661;45.700;4.880;2024-02-28T15:49:17;10.50;99.90
17092;DHT22;8661;45.700;4.880;2024-02-28T15:51:44;10.50;99.90
17092;DHT22;8661;45.700;4.880;2024-02-28T15:54:12;10.60;99.90
17092;DHT22;8661;45.700;4.880;2024-02-28T15:56:39;10.50;99.90
17092;DHT22;8661;45.700;4.880;2024-02-28T15:59:08;10.50;99.90